createdAt,value
2019-05-16T00:00:31.826Z,100.00
2019-05-16T00:03:00.396Z,100.00
2019-05-16T00:05:29.298Z,100.00
2019-05-16T00:07:59.053Z,100.00
2019-05-16T00:10:28.346Z,100.00
2019-05-16T00:12:59.555Z,100.00
2019-05-16T00:15:28.704Z,100.00
2019-05-16T00:17:58.324Z,100.00
2019-05-16T00:20:28.513Z,100.00
2019-05-16T00:22:58.895Z,100.00
2019-05-16T00:25:28.629Z,100.00
2019-05-16T00:27:58.699Z,100.00
2019-05-16T00:30:28.732Z,100.00
2019-05-16T00:32:58.831Z,100.00
2019-05-16T00:35:28.497Z,100.00
2019-05-16T00:37:58.985Z,100.00
2019-05-16T00:40:27.976Z,100.00
2019-05-16T00:42:58.751Z,100.00
2019-05-16T00:45:29.426Z,100.00
2019-05-16T00:47:58.741Z,100.00
2019-05-16T00:50:28.828Z,100.00
2019-05-16T00:52:58.920Z,100.00
2019-05-16T00:55:28.994Z,100.00
2019-05-16T00:57:58.413Z,100.00
2019-05-16T01:00:42.063Z,100.00
2019-05-16T01:03:10.632Z,100.00
2019-05-16T01:05:39.331Z,100.00
2019-05-16T01:08:08.083Z,100.00
2019-05-16T01:10:38.922Z,100.00
2019-05-16T01:13:07.979Z,100.00
2019-05-16T01:15:38.029Z,100.00
2019-05-16T01:18:08.064Z,100.00
2019-05-16T01:20:38.651Z,100.00
2019-05-16T01:23:08.895Z,100.00
2019-05-16T01:25:38.741Z,100.00
2019-05-16T01:28:08.891Z,100.00
2019-05-16T01:30:38.217Z,100.00
2019-05-16T01:33:08.938Z,100.00
2019-05-16T01:35:38.606Z,100.00
2019-05-16T01:38:08.636Z,100.00
2019-05-16T01:40:38.709Z,100.00
2019-05-16T01:43:08.569Z,100.00
2019-05-16T01:45:38.520Z,100.00
2019-05-16T01:48:08.218Z,100.00
2019-05-16T01:50:38.837Z,100.00
2019-05-16T01:53:08.682Z,100.00
2019-05-16T01:55:38.098Z,100.00
2019-05-16T01:58:08.041Z,100.00
2019-05-16T02:00:48.004Z,100.00
2019-05-16T02:03:08.290Z,100.00
2019-05-16T02:05:38.768Z,100.00
2019-05-16T02:08:08.839Z,100.00
2019-05-16T02:10:38.033Z,100.00
2019-05-16T02:13:08.494Z,100.00
2019-05-16T02:15:38.381Z,100.00
2019-05-16T02:18:08.273Z,100.00
2019-05-16T02:20:39.318Z,100.00
2019-05-16T02:23:08.142Z,100.00
2019-05-16T02:25:38.135Z,100.00
2019-05-16T02:28:07.255Z,100.00
2019-05-16T02:30:35.835Z,100.00
2019-05-16T02:33:04.484Z,100.00
2019-05-16T02:35:33.064Z,100.00
2019-05-16T02:38:01.644Z,100.00
2019-05-16T02:40:31.330Z,100.00
2019-05-16T02:43:01.636Z,100.00
2019-05-16T02:45:32.450Z,100.00
2019-05-16T02:48:01.492Z,100.00
2019-05-16T02:50:31.618Z,100.00
2019-05-16T02:53:01.653Z,100.00
2019-05-16T02:55:30.910Z,100.00
2019-05-16T02:58:00.910Z,100.00
2019-05-16T03:00:42.028Z,100.00
2019-05-16T03:03:11.636Z,100.00
2019-05-16T03:05:41.825Z,100.00
2019-05-16T03:08:12.258Z,100.00
2019-05-16T03:10:41.495Z,100.00
2019-05-16T03:13:11.455Z,100.00
2019-05-16T03:15:40.976Z,100.00
2019-05-16T03:18:12.238Z,100.00
2019-05-16T03:20:42.108Z,100.00
2019-05-16T03:23:11.517Z,100.00
2019-05-16T03:25:41.810Z,100.00
2019-05-16T03:28:11.109Z,100.00
2019-05-16T03:30:44.769Z,100.00
2019-05-16T03:33:19.032Z,100.00
2019-05-16T03:35:44.518Z,100.00
2019-05-16T03:38:12.166Z,100.00
2019-05-16T03:40:41.449Z,100.00
2019-05-16T03:43:11.589Z,100.00
2019-05-16T03:45:41.806Z,100.00
2019-05-16T03:48:12.062Z,100.00
2019-05-16T03:50:41.357Z,100.00
2019-05-16T03:53:11.653Z,100.00
2019-05-16T03:55:40.988Z,100.00
2019-05-16T03:58:11.745Z,100.00
2019-05-16T04:00:52.451Z,100.00
2019-05-16T04:03:21.339Z,100.00
2019-05-16T04:05:52.537Z,100.00
2019-05-16T04:08:24.472Z,100.00
2019-05-16T04:10:52.264Z,100.00
2019-05-16T04:13:21.617Z,100.00
2019-05-16T04:15:52.234Z,100.00
2019-05-16T04:18:22.216Z,100.00
2019-05-16T04:20:53.844Z,100.00
2019-05-16T04:23:22.447Z,100.00
2019-05-16T04:25:52.988Z,100.00
2019-05-16T04:28:22.653Z,100.00
2019-05-16T04:30:52.274Z,100.00
2019-05-16T04:33:22.471Z,100.00
2019-05-16T04:35:52.600Z,100.00
2019-05-16T04:38:35.176Z,100.00
2019-05-16T04:40:52.501Z,100.00
2019-05-16T04:43:22.382Z,100.00
2019-05-16T04:45:52.445Z,100.00
2019-05-16T04:48:22.307Z,100.00
2019-05-16T04:50:52.335Z,100.00
2019-05-16T04:53:21.813Z,100.00
2019-05-16T04:55:51.984Z,100.00
2019-05-16T04:58:23.138Z,100.00
2019-05-16T05:00:52.180Z,100.00
2019-05-16T05:03:21.834Z,100.00
2019-05-16T05:05:51.579Z,100.00
2019-05-16T05:08:22.117Z,100.00
2019-05-16T05:10:51.796Z,100.00
2019-05-16T05:13:23.604Z,100.00
2019-05-16T05:15:52.257Z,100.00
2019-05-16T05:18:21.553Z,100.00
2019-05-16T05:20:52.397Z,100.00
2019-05-16T05:23:21.185Z,100.00
2019-05-16T05:25:51.244Z,100.00
2019-05-16T05:28:21.252Z,100.00
2019-05-16T05:30:50.668Z,100.00
2019-05-16T05:33:21.191Z,100.00
2019-05-16T05:35:50.687Z,100.00
2019-05-16T05:38:21.387Z,100.00
2019-05-16T05:40:53.011Z,100.00
2019-05-16T05:43:21.971Z,100.00
2019-05-16T05:45:51.418Z,100.00
2019-05-16T05:48:21.677Z,100.00
2019-05-16T05:50:51.207Z,100.00
2019-05-16T05:53:20.938Z,100.00
2019-05-16T05:55:51.334Z,100.00
2019-05-16T05:58:21.002Z,100.00
2019-05-16T06:00:52.040Z,100.00
2019-05-16T06:03:22.289Z,100.00
2019-05-16T06:05:50.795Z,100.00
2019-05-16T06:08:20.546Z,100.00
2019-05-16T06:10:50.340Z,100.00
2019-05-16T06:13:20.750Z,100.00
2019-05-16T06:15:51.104Z,100.00
2019-05-16T06:18:20.322Z,100.00
2019-05-16T06:20:51.217Z,100.00
2019-05-16T06:23:20.787Z,100.00
2019-05-16T06:25:50.728Z,100.00
2019-05-16T06:28:20.600Z,100.00
2019-05-16T06:30:52.701Z,100.00
2019-05-16T06:33:21.380Z,100.00
2019-05-16T06:35:51.270Z,100.00
2019-05-16T06:38:21.230Z,100.00
2019-05-16T06:40:52.770Z,100.00
2019-05-16T06:43:20.658Z,100.00
2019-05-16T06:45:51.238Z,100.00
2019-05-16T06:48:21.234Z,100.00
2019-05-16T06:50:51.596Z,100.00
2019-05-16T06:53:21.024Z,100.00
2019-05-16T06:55:50.046Z,100.00
2019-05-16T06:58:21.797Z,92.19
2019-05-16T07:00:52.328Z,87.99
2019-05-16T07:03:20.855Z,84.53
2019-05-16T07:05:50.558Z,83.19
2019-05-16T07:08:20.592Z,81.75
2019-05-16T07:10:50.724Z,85.17
2019-05-16T07:13:20.067Z,86.06
2019-05-16T07:15:50.180Z,83.92
2019-05-16T07:18:20.735Z,81.50
2019-05-16T07:20:51.130Z,87.22
2019-05-16T07:23:20.930Z,92.65
2019-05-16T07:25:50.735Z,89.47
2019-05-16T07:28:20.906Z,92.58
2019-05-16T07:30:50.379Z,97.14
2019-05-16T07:33:21.251Z,100.00
2019-05-16T07:35:51.235Z,94.67
2019-05-16T07:38:20.455Z,87.25
2019-05-16T07:40:51.216Z,86.06
2019-05-16T07:43:20.408Z,87.39
2019-05-16T07:45:51.221Z,89.46
2019-05-16T07:48:21.520Z,97.67
2019-05-16T07:50:50.317Z,97.10
2019-05-16T07:53:21.153Z,100.00
2019-05-16T07:55:50.974Z,100.00
2019-05-16T07:58:21.991Z,90.49
2019-05-16T08:01:01.908Z,94.70
2019-05-16T08:03:20.722Z,99.29
2019-05-16T08:05:51.516Z,98.75
2019-05-16T08:08:23.843Z,95.44
2019-05-16T08:10:51.208Z,100.00
2019-05-16T08:15:51.003Z,100.00
2019-05-16T08:18:21.362Z,86.25
2019-05-16T08:20:52.355Z,79.95
2019-05-16T08:25:50.804Z,78.32
2019-05-16T08:28:21.679Z,72.62
2019-05-16T08:33:21.887Z,55.96
2019-05-16T08:35:51.683Z,63.70
2019-05-16T08:38:21.783Z,66.59
2019-05-16T08:43:22.037Z,72.69
2019-05-16T08:45:51.925Z,76.56
2019-05-16T08:48:23.138Z,81.36
2019-05-16T08:50:05.719Z,100.00
2019-05-16T08:50:54.775Z,87.09
2019-05-16T08:53:22.330Z,100.00
2019-05-16T08:55:51.181Z,100.00
2019-05-16T08:58:22.507Z,100.00
2019-05-16T09:00:55.182Z,100.00
2019-05-16T09:03:23.683Z,100.00
2019-05-16T09:05:53.514Z,100.00
2019-05-16T09:08:22.629Z,100.00
2019-05-16T09:10:11.184Z,71.69
2019-05-16T09:10:42.042Z,58.12
2019-05-16T09:11:00.696Z,100.00
2019-05-16T09:13:21.592Z,100.00
2019-05-16T09:15:50.317Z,100.00
2019-05-16T09:18:18.979Z,100.00
2019-05-16T09:20:57.179Z,100.00
2019-05-16T09:23:18.494Z,100.00
2019-05-16T09:25:48.903Z,100.00
2019-05-16T09:28:17.607Z,100.00
2019-05-16T09:30:49.060Z,100.00
2019-05-16T09:33:18.442Z,100.00
2019-05-16T09:35:47.871Z,100.00
2019-05-16T09:38:20.415Z,100.00
2019-05-16T09:40:48.083Z,100.00
2019-05-16T09:43:17.844Z,100.00
2019-05-16T09:45:47.418Z,100.00
2019-05-16T09:48:18.904Z,100.00
2019-05-16T09:50:47.159Z,100.00
2019-05-16T09:53:17.032Z,100.00
2019-05-16T09:55:46.952Z,100.00
2019-05-16T09:58:18.201Z,100.00
2019-05-16T10:00:50.284Z,100.00
2019-05-16T10:03:22.621Z,100.00
2019-05-16T10:05:49.302Z,100.00
2019-05-16T10:08:17.948Z,100.00
2019-05-16T10:10:46.691Z,100.00
2019-05-16T10:13:18.245Z,100.00
2019-05-16T10:15:47.291Z,100.00
2019-05-16T10:18:16.914Z,100.00
2019-05-16T10:20:45.902Z,100.00
2019-05-16T10:23:17.883Z,100.00
2019-05-16T10:25:47.687Z,100.00
2019-05-16T10:28:17.374Z,100.00
2019-05-16T10:30:47.057Z,100.00
2019-05-16T10:33:18.840Z,100.00
2019-05-16T10:35:47.909Z,100.00
2019-05-16T10:38:17.006Z,100.00
2019-05-16T10:40:47.564Z,100.00
2019-05-16T10:43:17.262Z,100.00
2019-05-16T10:45:46.470Z,100.00
2019-05-16T10:48:17.514Z,100.00
2019-05-16T10:50:47.803Z,100.00
2019-05-16T10:53:42.233Z,100.00
2019-05-16T10:55:47.742Z,100.00
2019-05-16T10:58:34.793Z,100.00
2019-05-16T11:01:11.129Z,100.00
2019-05-16T11:03:17.341Z,100.00
2019-05-16T11:06:01.183Z,100.00
2019-05-16T11:08:16.240Z,100.00
2019-05-16T11:10:45.540Z,100.00
2019-05-16T11:13:17.138Z,100.00
2019-05-16T11:15:45.748Z,100.00
2019-05-16T11:18:14.436Z,100.00
2019-05-16T11:20:48.080Z,100.00
2019-05-16T11:23:13.443Z,100.00
2019-05-16T11:25:42.099Z,100.00
2019-05-16T11:28:10.821Z,100.00
2019-05-16T11:30:40.022Z,100.00
2019-05-16T11:33:08.760Z,100.00
2019-05-16T11:35:38.182Z,100.00
2019-05-16T11:38:07.378Z,100.00
2019-05-16T11:40:36.164Z,100.00
2019-05-16T11:43:11.371Z,100.00
2019-05-16T11:45:36.803Z,100.00
2019-05-16T11:48:05.593Z,100.00
2019-05-16T11:50:37.052Z,100.00
2019-05-16T11:53:07.110Z,100.00
2019-05-16T11:55:50.661Z,100.00
2019-05-16T11:58:08.317Z,100.00
2019-05-16T12:00:37.388Z,88.85
2019-05-16T12:03:06.245Z,62.72
2019-05-16T12:05:37.170Z,50.53
2019-05-16T12:08:07.660Z,48.85
2019-05-16T12:10:36.335Z,52.18
2019-05-16T12:13:07.589Z,49.15
2019-05-16T12:15:36.672Z,47.02
2019-05-16T12:18:08.324Z,46.13
2019-05-16T12:20:35.819Z,39.37
2019-05-16T12:23:07.754Z,36.78
2019-05-16T12:25:36.726Z,32.89
2019-05-16T12:28:07.876Z,29.23
2019-05-16T12:30:40.114Z,30.00
2019-05-16T12:33:07.321Z,32.98
2019-05-16T12:35:36.868Z,34.42
2019-05-16T12:38:08.145Z,38.78
2019-05-16T12:40:37.580Z,37.51
2019-05-16T12:43:07.834Z,41.05
2019-05-16T12:45:38.681Z,40.08
2019-05-16T12:48:09.849Z,46.86
2019-05-16T12:50:39.097Z,49.03
2019-05-16T12:53:08.290Z,53.23
2019-05-16T12:55:37.028Z,64.01
2019-05-16T12:58:13.651Z,66.75
2019-05-16T13:00:37.143Z,64.15
2019-05-16T13:03:09.007Z,64.38
2019-05-16T13:05:37.857Z,52.00
2019-05-16T13:08:06.505Z,44.46
2019-05-16T13:10:37.731Z,43.48
2019-05-16T13:13:07.769Z,37.59
2019-05-16T13:15:37.919Z,37.89
2019-05-16T13:18:07.859Z,42.31
2019-05-16T13:20:39.335Z,44.46
2019-05-16T13:23:14.361Z,37.06
2019-05-16T13:25:37.596Z,41.27
2019-05-16T13:28:08.118Z,48.40
2019-05-16T13:30:37.724Z,52.85
2019-05-16T13:33:07.229Z,59.46
2019-05-16T13:35:54.387Z,62.92
2019-05-16T13:38:22.961Z,66.95
2019-05-16T13:40:51.742Z,71.09
2019-05-16T13:43:20.331Z,74.48
2019-05-16T13:45:48.989Z,78.20
2019-05-16T13:48:17.633Z,66.03
2019-05-16T13:50:47.333Z,65.11
2019-05-16T13:53:16.523Z,67.26
2019-05-16T13:55:45.319Z,75.11
2019-05-16T13:58:13.954Z,75.92
2019-05-16T14:00:42.596Z,85.33
2019-05-16T14:03:11.267Z,72.35
2019-05-16T14:05:39.909Z,61.48
2019-05-16T14:08:08.572Z,61.50
2019-05-16T14:10:37.739Z,63.12
2019-05-16T14:13:07.531Z,62.64
2019-05-16T14:15:36.871Z,61.85
2019-05-16T14:18:07.695Z,55.19
2019-05-16T14:20:37.820Z,55.57
2019-05-16T14:23:08.498Z,51.97
2019-05-16T14:25:38.065Z,56.78
2019-05-16T14:28:07.862Z,61.52
2019-05-16T14:30:37.399Z,55.32
2019-05-16T14:33:13.526Z,47.16
2019-05-16T14:35:37.640Z,39.41
2019-05-16T14:38:06.788Z,38.30
2019-05-16T14:40:37.351Z,37.35
2019-05-16T14:43:08.351Z,38.49
2019-05-16T14:45:37.150Z,42.57
2019-05-16T14:48:07.530Z,42.89
2019-05-16T14:50:37.564Z,45.96
2019-05-16T14:53:07.495Z,48.35
2019-05-16T14:55:38.113Z,53.52
2019-05-16T14:58:07.655Z,55.45
2019-05-16T15:00:38.364Z,61.88
2019-05-16T15:03:08.358Z,71.99
2019-05-16T15:05:42.526Z,81.46
2019-05-16T15:08:08.545Z,91.73
2019-05-16T15:10:37.785Z,94.99
2019-05-16T15:13:07.902Z,100.00
2019-05-16T15:15:39.548Z,100.00
2019-05-16T15:18:08.510Z,100.00
2019-05-16T15:20:37.209Z,100.00
2019-05-16T15:23:07.746Z,99.36
2019-05-16T15:25:37.551Z,100.00
2019-05-16T15:28:07.568Z,100.00
2019-05-16T15:30:39.049Z,100.00
2019-05-16T15:33:08.519Z,86.86
2019-05-16T15:35:38.142Z,78.50
2019-05-16T15:38:08.013Z,69.04
2019-05-16T15:40:37.568Z,71.34
2019-05-16T15:43:07.881Z,73.35
2019-05-16T15:45:44.208Z,71.17
2019-05-16T15:48:12.729Z,75.27
2019-05-16T15:50:41.984Z,86.04
2019-05-16T15:53:10.617Z,88.43
2019-05-16T15:55:39.271Z,90.82
2019-05-16T15:58:10.254Z,95.89
2019-05-16T16:00:40.584Z,100.00
2019-05-16T16:03:09.229Z,100.00
2019-05-16T16:05:37.885Z,100.00
2019-05-16T16:08:07.028Z,100.00
2019-05-16T16:10:38.103Z,100.00
2019-05-16T16:13:07.046Z,100.00
2019-05-16T16:15:49.871Z,100.00
2019-05-16T16:18:08.887Z,100.00
2019-05-16T16:20:38.036Z,100.00
2019-05-16T16:23:07.047Z,100.00
2019-05-16T16:25:35.937Z,100.00
2019-05-16T16:28:07.391Z,100.00
2019-05-16T16:30:37.329Z,100.00
2019-05-16T16:33:19.036Z,100.00
2019-05-16T16:35:37.996Z,100.00
2019-05-16T16:38:07.037Z,100.00
2019-05-16T16:40:37.531Z,100.00
2019-05-16T16:43:08.038Z,100.00
2019-05-16T16:45:39.512Z,100.00
2019-05-16T16:48:08.228Z,100.00
2019-05-16T16:50:37.205Z,100.00
2019-05-16T16:53:07.154Z,100.00
2019-05-16T16:55:36.972Z,100.00
2019-05-16T16:58:09.664Z,98.75
2019-05-16T17:00:38.479Z,98.48
2019-05-16T17:03:10.429Z,98.42
2019-05-16T17:05:37.477Z,100.00
2019-05-16T17:08:07.579Z,100.00
2019-05-16T17:10:38.074Z,100.00
2019-05-16T17:13:07.130Z,100.00
2019-05-16T17:15:36.689Z,100.00
2019-05-16T17:18:07.050Z,100.00
2019-05-16T17:20:37.191Z,100.00
2019-05-16T17:23:06.857Z,100.00
2019-05-16T17:25:36.670Z,100.00
2019-05-16T17:28:07.021Z,100.00
2019-05-16T17:30:36.886Z,100.00
2019-05-16T17:33:07.670Z,100.00
2019-05-16T17:35:38.744Z,100.00
2019-05-16T17:38:06.910Z,100.00
2019-05-16T17:40:38.138Z,100.00
2019-05-16T17:43:07.276Z,100.00
2019-05-16T17:45:37.532Z,100.00
2019-05-16T17:48:06.862Z,100.00
2019-05-16T17:50:37.331Z,100.00
2019-05-16T17:53:07.193Z,100.00
2019-05-16T17:55:38.739Z,100.00
2019-05-16T17:58:09.052Z,100.00
2019-05-16T18:00:37.850Z,100.00
2019-05-16T18:03:06.875Z,100.00
2019-05-16T18:05:37.109Z,100.00
2019-05-16T18:08:07.391Z,100.00
2019-05-16T18:10:36.742Z,100.00
2019-05-16T18:13:07.739Z,100.00
2019-05-16T18:15:36.823Z,100.00
2019-05-16T18:18:07.035Z,100.00
2019-05-16T18:20:37.296Z,100.00
2019-05-16T18:23:07.005Z,100.00
2019-05-16T18:25:36.625Z,100.00
2019-05-16T18:28:07.928Z,100.00
2019-05-16T18:30:36.723Z,100.00
2019-05-16T18:33:07.366Z,100.00
2019-05-16T18:35:37.120Z,100.00
2019-05-16T18:38:08.696Z,100.00
2019-05-16T18:40:37.364Z,100.00
2019-05-16T18:43:08.201Z,100.00
2019-05-16T18:45:37.879Z,100.00
2019-05-16T18:48:07.596Z,100.00
2019-05-16T18:50:38.055Z,100.00
2019-05-16T18:53:07.770Z,100.00
2019-05-16T18:55:37.406Z,100.00
2019-05-16T18:58:08.417Z,100.00
2019-05-16T19:00:37.747Z,100.00
2019-05-16T19:03:07.714Z,100.00
2019-05-16T19:05:37.472Z,100.00
2019-05-16T19:08:07.227Z,100.00
2019-05-16T19:10:36.835Z,100.00
2019-05-16T19:13:08.109Z,100.00
2019-05-16T19:15:37.461Z,100.00
2019-05-16T19:18:06.854Z,100.00
2019-05-16T19:20:37.496Z,100.00
2019-05-16T19:23:07.420Z,100.00
2019-05-16T19:25:36.378Z,100.00
2019-05-16T19:28:06.971Z,100.00
2019-05-16T19:30:37.373Z,100.00
2019-05-16T19:33:06.879Z,100.00
2019-05-16T19:35:35.951Z,100.00
2019-05-16T19:38:06.683Z,100.00
2019-05-16T19:40:40.497Z,100.00
2019-05-16T19:43:08.302Z,100.00
2019-05-16T19:45:37.409Z,100.00
2019-05-16T19:48:07.169Z,100.00
2019-05-16T19:50:37.155Z,100.00
2019-05-16T19:53:07.722Z,100.00
2019-05-16T19:55:36.683Z,100.00
2019-05-16T19:58:06.818Z,100.00
2019-05-16T20:00:37.443Z,100.00
2019-05-16T20:03:09.112Z,100.00
2019-05-16T20:05:37.839Z,100.00
2019-05-16T20:08:06.979Z,100.00
2019-05-16T20:10:36.625Z,100.00
2019-05-16T20:13:07.687Z,100.00
2019-05-16T20:15:36.575Z,100.00
2019-05-16T20:18:07.834Z,100.00
2019-05-16T20:20:37.185Z,100.00
2019-05-16T20:23:06.406Z,100.00
2019-05-16T20:25:36.572Z,100.00
2019-05-16T20:28:08.791Z,100.00
2019-05-16T20:30:37.201Z,100.00
2019-05-16T20:33:07.008Z,100.00
2019-05-16T20:35:37.502Z,100.00
2019-05-16T20:38:09.071Z,100.00
2019-05-16T20:40:37.738Z,100.00
2019-05-16T20:43:07.633Z,100.00
2019-05-16T20:45:39.799Z,100.00
2019-05-16T20:48:12.051Z,100.00
2019-05-16T20:50:37.494Z,100.00
2019-05-16T20:53:07.220Z,100.00
2019-05-16T20:55:37.619Z,100.00
2019-05-16T20:58:07.756Z,100.00
2019-05-16T21:00:37.830Z,100.00
2019-05-16T21:03:07.185Z,100.00
2019-05-16T21:05:38.217Z,100.00
2019-05-16T21:08:06.776Z,100.00
2019-05-16T21:10:35.573Z,100.00
2019-05-16T21:13:06.671Z,100.00
2019-05-16T21:15:37.081Z,100.00
2019-05-16T21:18:07.323Z,100.00
2019-05-16T21:20:35.454Z,100.00
2019-05-16T21:23:04.153Z,100.00
2019-05-16T21:25:32.791Z,100.00
2019-05-16T21:28:01.366Z,100.00
2019-05-16T21:30:30.052Z,100.00
2019-05-16T21:32:58.685Z,100.00
2019-05-16T21:35:27.333Z,100.00
2019-05-16T21:37:55.942Z,100.00
2019-05-16T21:40:26.515Z,100.00
2019-05-16T21:42:58.490Z,100.00
2019-05-16T21:45:28.474Z,100.00
2019-05-16T21:47:56.802Z,100.00
2019-05-16T21:50:27.542Z,100.00
2019-05-16T21:52:56.602Z,100.00
2019-05-16T21:55:29.726Z,100.00
2019-05-16T21:57:57.408Z,100.00
2019-05-16T22:00:44.322Z,100.00
2019-05-16T22:03:14.465Z,100.00
2019-05-16T22:05:43.129Z,100.00
2019-05-16T22:08:11.995Z,100.00
2019-05-16T22:10:40.821Z,100.00
2019-05-16T22:13:09.449Z,100.00
2019-05-16T22:15:38.129Z,100.00
2019-05-16T22:18:07.384Z,100.00
2019-05-16T22:20:36.198Z,100.00
2019-05-16T22:23:06.992Z,100.00
2019-05-16T22:25:35.198Z,100.00
2019-05-16T22:28:06.950Z,100.00
2019-05-16T22:30:36.414Z,100.00
2019-05-16T22:33:08.821Z,100.00
2019-05-16T22:35:37.349Z,100.00
2019-05-16T22:38:06.492Z,100.00
2019-05-16T22:40:37.338Z,100.00
2019-05-16T22:43:07.225Z,100.00
2019-05-16T22:45:37.341Z,100.00
2019-05-16T22:48:07.140Z,100.00
2019-05-16T22:50:36.478Z,100.00
2019-05-16T22:53:06.387Z,100.00
2019-05-16T22:55:37.226Z,100.00
2019-05-16T22:58:07.383Z,100.00
2019-05-16T23:00:38.980Z,100.00
2019-05-16T23:03:06.860Z,100.00
2019-05-16T23:05:36.848Z,100.00
2019-05-16T23:08:09.599Z,100.00
2019-05-16T23:10:36.830Z,100.00
2019-05-16T23:13:06.778Z,100.00
2019-05-16T23:15:36.722Z,100.00
2019-05-16T23:18:06.980Z,100.00
2019-05-16T23:20:37.067Z,100.00
2019-05-16T23:23:07.152Z,100.00
2019-05-16T23:25:37.158Z,100.00
2019-05-16T23:28:07.632Z,100.00
2019-05-16T23:30:36.683Z,100.00
2019-05-16T23:33:07.113Z,100.00
2019-05-16T23:35:37.550Z,100.00
2019-05-16T23:38:18.558Z,100.00
2019-05-16T23:40:37.598Z,100.00
2019-05-16T23:43:07.659Z,100.00
2019-05-16T23:45:37.630Z,100.00
2019-05-16T23:48:10.734Z,100.00
2019-05-16T23:50:36.913Z,100.00
2019-05-16T23:53:07.291Z,100.00
2019-05-16T23:55:37.294Z,100.00
2019-05-16T23:58:06.959Z,100.00
